createdAt,value
2019-02-05T00:01:35.664Z,14.78
2019-02-05T00:04:06.189Z,12.85
2019-02-05T00:06:36.104Z,14.35
2019-02-05T00:09:10.215Z,22.02
2019-02-05T00:11:39.706Z,16.10
2019-02-05T00:14:09.647Z,12.00
2019-02-05T00:16:39.624Z,16.48
2019-02-05T00:19:09.210Z,16.45
2019-02-05T00:21:38.684Z,17.37
2019-02-05T00:24:08.176Z,16.65
2019-02-05T00:26:37.624Z,15.00
2019-02-05T00:29:07.115Z,14.23
2019-02-05T00:31:36.965Z,18.62
2019-02-05T00:34:06.495Z,17.02
2019-02-05T00:36:35.965Z,14.38
2019-02-05T00:39:08.421Z,14.10
2019-02-05T00:41:37.992Z,14.83
2019-02-05T00:44:07.461Z,17.05
2019-02-05T00:46:36.956Z,13.40
2019-02-05T00:49:06.457Z,16.27
2019-02-05T00:51:36.066Z,15.93
2019-02-05T00:54:06.456Z,19.32
2019-02-05T00:56:35.912Z,20.43
2019-02-05T00:59:05.617Z,18.98
2019-02-05T01:01:35.359Z,15.08
2019-02-05T01:04:05.520Z,17.45
2019-02-05T01:06:35.001Z,16.67
2019-02-05T01:09:06.853Z,20.88
2019-02-05T01:11:36.390Z,16.25
2019-02-05T01:14:06.622Z,15.43
2019-02-05T01:16:36.181Z,19.40
2019-02-05T01:19:05.849Z,17.10
2019-02-05T01:21:35.324Z,19.40
2019-02-05T01:24:05.144Z,16.45
2019-02-05T01:26:34.615Z,16.73
2019-02-05T01:29:04.382Z,18.73
2019-02-05T01:31:33.967Z,17.62
2019-02-05T01:34:03.478Z,20.62
2019-02-05T01:36:33.069Z,17.98
2019-02-05T01:39:02.590Z,20.23
2019-02-05T01:41:32.434Z,19.05
2019-02-05T01:44:02.247Z,18.40
2019-02-05T01:46:31.711Z,15.20
2019-02-05T01:49:01.170Z,16.85
2019-02-05T01:51:30.718Z,22.37
2019-02-05T01:54:00.190Z,22.42
2019-02-05T01:56:40.203Z,21.20
2019-02-05T01:59:01.338Z,16.37
2019-02-05T02:01:30.990Z,19.70
2019-02-05T02:04:00.476Z,15.98
2019-02-05T02:06:29.951Z,16.70
2019-02-05T02:08:59.456Z,18.57
2019-02-05T02:11:29.222Z,21.93
2019-02-05T02:13:58.737Z,20.52
2019-02-05T02:16:28.201Z,18.95
2019-02-05T02:18:57.697Z,20.70
2019-02-05T02:21:27.187Z,19.42
2019-02-05T02:23:56.686Z,20.70
2019-02-05T02:26:26.426Z,22.42
2019-02-05T02:28:55.971Z,24.35
2019-02-05T02:31:25.474Z,19.55
2019-02-05T02:33:54.946Z,22.60
2019-02-05T02:36:24.453Z,23.45
2019-02-05T02:38:53.919Z,29.05
2019-02-05T02:41:23.609Z,25.40
2019-02-05T02:43:53.091Z,21.77
2019-02-05T02:46:22.705Z,22.90
2019-02-05T02:48:52.343Z,21.27
2019-02-05T02:51:21.818Z,24.55
2019-02-05T02:53:51.329Z,21.50
2019-02-05T02:56:20.909Z,24.65
2019-02-05T02:58:50.344Z,23.60
2019-02-05T03:01:19.827Z,20.27
2019-02-05T03:03:49.307Z,28.38
2019-02-05T03:06:18.793Z,25.88
2019-02-05T03:08:48.304Z,31.42
2019-02-05T03:11:18.072Z,23.73
2019-02-05T03:13:47.545Z,26.35
2019-02-05T03:16:17.050Z,28.73
2019-02-05T03:18:46.521Z,28.15
2019-02-05T03:21:16.016Z,29.15
2019-02-05T03:23:45.507Z,39.35
2019-02-05T03:26:15.054Z,25.72
2019-02-05T03:28:44.796Z,29.27
2019-02-05T03:31:14.313Z,37.08
2019-02-05T03:33:43.869Z,24.50
2019-02-05T03:36:13.530Z,28.70
2019-02-05T03:38:43.041Z,28.70
2019-02-05T03:41:12.520Z,28.35
2019-02-05T03:43:42.641Z,36.13
2019-02-05T03:46:14.318Z,32.60
2019-02-05T03:48:45.585Z,24.32
2019-02-05T03:51:28.455Z,31.82
2019-02-05T03:54:17.077Z,29.18
2019-02-05T03:57:15.832Z,32.53
2019-02-05T04:00:28.270Z,33.75
2019-02-05T04:03:24.396Z,33.25
2019-02-05T04:06:42.409Z,34.05
2019-02-05T04:09:39.145Z,28.17
2019-02-05T04:12:50.121Z,30.85
2019-02-05T04:15:46.081Z,29.63
2019-02-05T04:18:58.115Z,35.15
2019-02-05T04:22:18.496Z,26.75
2019-02-05T04:25:21.386Z,30.95
2019-02-05T04:28:27.856Z,28.47
2019-02-05T04:31:15.990Z,25.85
2019-02-05T04:34:04.514Z,34.48
2019-02-05T04:37:29.547Z,24.47
2019-02-05T04:40:54.635Z,31.87
2019-02-05T04:44:16.967Z,33.30
2019-02-05T04:47:10.170Z,29.02
2019-02-05T04:50:11.124Z,29.40
2019-02-05T04:53:19.185Z,34.65
2019-02-05T04:56:14.435Z,42.30
2019-02-05T04:59:37.049Z,25.77
2019-02-05T05:02:28.013Z,35.83
2019-02-05T05:05:14.260Z,30.75
2019-02-05T05:08:15.652Z,29.67
2019-02-05T05:10:45.140Z,37.65
2019-02-05T05:13:15.041Z,36.13
2019-02-05T05:15:44.498Z,43.23
2019-02-05T05:18:15.604Z,31.35
2019-02-05T05:20:46.032Z,38.98
2019-02-05T05:23:15.706Z,40.00
2019-02-05T05:25:57.167Z,34.20
2019-02-05T05:28:27.136Z,31.40
2019-02-05T05:30:57.325Z,37.75
2019-02-05T05:33:26.797Z,32.85
2019-02-05T05:35:56.536Z,34.40
2019-02-05T05:38:25.993Z,36.20
2019-02-05T05:40:55.452Z,34.63
2019-02-05T05:43:24.957Z,33.25
2019-02-05T05:45:54.930Z,36.45
2019-02-05T05:48:24.434Z,38.98
2019-02-05T05:50:53.928Z,30.82
2019-02-05T05:53:23.452Z,38.17
2019-02-05T05:55:53.116Z,41.25
2019-02-05T05:58:23.152Z,43.60
2019-02-05T06:00:52.990Z,38.78
2019-02-05T06:03:22.550Z,32.83
2019-02-05T06:05:52.059Z,38.83
2019-02-05T06:08:21.548Z,38.15
2019-02-05T06:10:51.079Z,35.50
2019-02-05T06:13:23.360Z,31.62
2019-02-05T06:15:52.858Z,34.03
2019-02-05T06:18:22.410Z,37.80
2019-02-05T06:20:51.969Z,40.65
2019-02-05T06:23:21.578Z,31.68
2019-02-05T06:25:51.159Z,41.53
2019-02-05T06:28:20.793Z,34.40
2019-02-05T06:30:50.297Z,40.67
2019-02-05T06:33:23.489Z,40.20
2019-02-05T06:35:51.035Z,44.20
2019-02-05T06:38:20.548Z,41.40
2019-02-05T06:40:50.044Z,37.75
2019-02-05T06:43:19.552Z,40.10
2019-02-05T06:45:49.116Z,40.03
2019-02-05T06:48:18.975Z,39.92
2019-02-05T06:50:48.498Z,42.93
2019-02-05T06:53:17.999Z,36.75
2019-02-05T06:55:47.580Z,43.00
2019-02-05T06:58:17.153Z,37.03
2019-02-05T07:00:46.675Z,32.53
2019-02-05T07:03:16.539Z,38.88
2019-02-05T07:05:46.045Z,39.05
2019-02-05T07:08:15.545Z,37.95
2019-02-05T07:10:45.051Z,40.73
2019-02-05T07:13:14.568Z,42.35
2019-02-05T07:15:44.073Z,43.13
2019-02-05T07:18:13.579Z,38.15
2019-02-05T07:20:43.059Z,45.35
2019-02-05T07:23:12.562Z,37.13
2019-02-05T07:25:42.036Z,32.83
2019-02-05T07:28:12.444Z,46.00
2019-02-05T07:30:41.941Z,38.65
2019-02-05T07:33:11.442Z,37.40
2019-02-05T07:35:41.132Z,40.48
2019-02-05T07:38:11.923Z,36.73
2019-02-05T07:40:41.544Z,41.05
2019-02-05T07:43:11.124Z,44.45
2019-02-05T07:45:40.651Z,34.75
2019-02-05T07:48:10.149Z,35.17
2019-02-05T07:50:39.688Z,43.33
2019-02-05T07:53:09.430Z,39.90
2019-02-05T07:55:38.906Z,37.90
2019-02-05T07:58:08.581Z,41.37
2019-02-05T08:00:38.166Z,34.73
2019-02-05T08:03:07.655Z,35.63
2019-02-05T08:05:37.228Z,46.33
2019-02-05T08:08:07.925Z,43.48
2019-02-05T08:10:37.386Z,37.78
2019-02-05T08:13:07.741Z,32.20
2019-02-05T08:15:38.540Z,46.15
2019-02-05T08:18:08.452Z,32.65
2019-02-05T08:20:37.995Z,47.43
2019-02-05T08:23:07.447Z,43.23
2019-02-05T08:25:37.044Z,32.88
2019-02-05T08:28:06.644Z,34.63
2019-02-05T08:30:39.000Z,37.08
2019-02-05T08:33:08.591Z,36.60
2019-02-05T08:35:38.131Z,38.10
2019-02-05T08:38:13.817Z,37.08
2019-02-05T08:40:43.805Z,46.90
2019-02-05T08:43:13.318Z,35.52
2019-02-05T08:45:42.786Z,34.18
2019-02-05T08:48:13.873Z,27.00
2019-02-05T08:50:43.447Z,34.78
2019-02-05T08:53:13.413Z,34.00
2019-02-05T08:55:43.067Z,31.17
2019-02-05T08:58:13.233Z,32.15
2019-02-05T09:00:42.977Z,37.40
2019-02-05T09:03:12.920Z,33.08
2019-02-05T09:05:42.631Z,32.10
2019-02-05T09:08:12.100Z,41.60
2019-02-05T09:10:42.131Z,33.18
2019-02-05T09:13:11.959Z,31.87
2019-02-05T09:15:41.670Z,29.15
2019-02-05T09:18:11.563Z,31.62
2019-02-05T09:20:41.048Z,43.95
2019-02-05T09:23:10.521Z,33.00
2019-02-05T09:25:40.008Z,31.37
2019-02-05T09:28:09.492Z,29.50
2019-02-05T09:30:39.011Z,37.28
2019-02-05T09:33:10.756Z,28.00
2019-02-05T09:35:40.503Z,29.42
2019-02-05T09:38:10.365Z,28.07
2019-02-05T09:40:40.264Z,29.10
2019-02-05T09:43:10.153Z,35.05
2019-02-05T09:45:40.591Z,33.85
2019-02-05T09:48:11.728Z,33.53
2019-02-05T09:50:44.804Z,30.70
2019-02-05T09:53:12.626Z,30.55
2019-02-05T09:55:42.270Z,24.37
2019-02-05T09:58:11.834Z,35.43
2019-02-05T10:00:41.881Z,28.45
2019-02-05T10:03:11.374Z,27.65
2019-02-05T10:05:40.875Z,37.75
2019-02-05T10:08:10.340Z,28.07
2019-02-05T10:10:39.824Z,29.23
2019-02-05T10:13:09.426Z,36.93
2019-02-05T10:15:40.750Z,31.05
2019-02-05T10:18:12.031Z,31.05
2019-02-05T10:20:41.831Z,28.50
2019-02-05T10:23:11.784Z,33.92
2019-02-05T10:25:41.368Z,32.23
2019-02-05T10:28:12.615Z,31.97
2019-02-05T10:30:44.459Z,34.40
2019-02-05T10:33:14.334Z,32.90
2019-02-05T10:35:44.815Z,32.05
2019-02-05T10:38:14.298Z,37.88
2019-02-05T10:40:43.733Z,41.13
2019-02-05T10:43:13.240Z,37.08
2019-02-05T10:45:42.870Z,37.28
2019-02-05T10:48:12.831Z,31.97
2019-02-05T10:50:42.289Z,27.10
2019-02-05T10:53:12.022Z,32.98
2019-02-05T10:55:41.756Z,30.08
2019-02-05T10:58:13.164Z,30.70
2019-02-05T11:00:43.383Z,27.82
2019-02-05T11:03:12.987Z,27.32
2019-02-05T11:05:42.508Z,41.85
2019-02-05T11:08:12.179Z,50.12
2019-02-05T11:10:41.737Z,56.70
2019-02-05T11:13:11.251Z,31.35
2019-02-05T11:15:40.828Z,21.23
2019-02-05T11:18:12.537Z,28.75
2019-02-05T11:20:41.936Z,32.33
2019-02-05T11:23:11.460Z,30.13
2019-02-05T11:25:41.051Z,46.93
2019-02-05T11:28:10.629Z,30.17
2019-02-05T11:30:42.759Z,43.07
2019-02-05T11:33:13.065Z,37.00
2019-02-05T11:35:43.031Z,30.12
2019-02-05T11:38:13.817Z,27.50
2019-02-05T11:40:43.433Z,30.20
2019-02-05T11:43:12.865Z,48.67
2019-02-05T11:45:42.259Z,27.43
2019-02-05T11:48:15.214Z,30.50
2019-02-05T11:50:44.739Z,33.30
2019-02-05T11:53:14.429Z,28.93
2019-02-05T11:55:43.869Z,31.20
2019-02-05T11:58:13.856Z,29.47
2019-02-05T12:01:14.569Z,25.40
2019-02-05T12:03:44.045Z,24.90
2019-02-05T12:06:13.427Z,25.43
2019-02-05T12:08:42.859Z,30.87
2019-02-05T12:11:12.368Z,30.33
2019-02-05T12:13:42.163Z,26.83
2019-02-05T12:16:11.580Z,29.40
2019-02-05T12:18:40.999Z,33.03
2019-02-05T12:21:10.423Z,35.17
2019-02-05T12:23:39.907Z,39.20
2019-02-05T12:26:09.560Z,34.83
2019-02-05T12:28:38.942Z,36.13
2019-02-05T12:31:09.003Z,32.30
2019-02-05T12:33:38.399Z,28.33
2019-02-05T12:36:07.854Z,31.63
2019-02-05T12:38:37.254Z,27.20
2019-02-05T12:41:06.656Z,36.87
2019-02-05T12:43:36.065Z,40.00
2019-02-05T12:46:05.719Z,27.90
2019-02-05T12:48:35.110Z,32.00
2019-02-05T12:51:05.301Z,22.73
2019-02-05T12:53:34.716Z,35.33
2019-02-05T12:56:05.276Z,35.03
2019-02-05T12:58:34.684Z,36.07
2019-02-05T13:01:04.634Z,31.73
2019-02-05T13:03:34.042Z,27.93
2019-02-05T13:06:04.133Z,34.43
2019-02-05T13:08:33.687Z,24.70
2019-02-05T13:11:03.172Z,29.90
2019-02-05T13:13:32.580Z,26.50
2019-02-05T13:16:02.389Z,29.97
2019-02-05T13:18:31.788Z,25.33
2019-02-05T13:21:01.218Z,29.57
2019-02-05T13:23:30.609Z,38.17
2019-02-05T13:26:00.137Z,34.63
2019-02-05T13:28:29.860Z,36.33
2019-02-05T13:31:07.715Z,27.03
2019-02-05T13:33:31.094Z,30.47
2019-02-05T13:36:00.556Z,23.70
2019-02-05T13:38:31.050Z,31.80
2019-02-05T13:41:01.258Z,31.23
2019-02-05T13:43:32.567Z,22.20
2019-02-05T13:46:02.560Z,32.50
2019-02-05T13:48:32.208Z,29.67
2019-02-05T13:51:01.657Z,27.83
2019-02-05T13:53:31.097Z,29.70
2019-02-05T13:56:00.771Z,29.83
2019-02-05T13:58:30.523Z,31.67
2019-02-05T14:01:00.387Z,38.63
2019-02-05T14:03:30.167Z,30.30
2019-02-05T14:05:59.715Z,35.63
2019-02-05T14:08:29.186Z,48.23
2019-02-05T14:10:58.610Z,30.40
2019-02-05T14:13:28.454Z,25.90
2019-02-05T14:15:57.997Z,32.10
2019-02-05T14:18:27.409Z,37.03
2019-02-05T14:20:56.923Z,34.10
2019-02-05T14:23:26.347Z,30.00
2019-02-05T14:25:55.857Z,35.50
2019-02-05T14:28:25.629Z,40.27
2019-02-05T14:30:57.021Z,37.03
2019-02-05T14:33:28.252Z,34.33
2019-02-05T14:35:57.755Z,35.57
2019-02-05T14:38:27.898Z,35.03
2019-02-05T14:40:57.404Z,35.33
2019-02-05T14:43:27.782Z,40.00
2019-02-05T14:45:57.289Z,30.47
2019-02-05T14:48:26.689Z,37.23
2019-02-05T14:50:56.103Z,44.70
2019-02-05T14:53:25.478Z,47.90
2019-02-05T14:55:54.913Z,35.67
2019-02-05T14:58:24.552Z,30.50
2019-02-05T15:00:53.941Z,51.47
2019-02-05T15:03:23.447Z,40.90
2019-02-05T15:05:52.830Z,37.90
2019-02-05T15:08:22.283Z,41.80
2019-02-05T15:10:51.793Z,39.83
2019-02-05T15:13:21.253Z,37.13
2019-02-05T15:15:50.678Z,41.77
2019-02-05T15:18:23.957Z,41.17
2019-02-05T15:20:54.024Z,37.57
2019-02-05T15:23:23.558Z,30.40
2019-02-05T15:25:53.450Z,34.93
2019-02-05T15:28:22.849Z,41.73
2019-02-05T15:30:52.277Z,30.13
2019-02-05T15:33:45.584Z,34.60
2019-02-05T15:36:35.631Z,35.93
2019-02-05T15:39:12.335Z,33.17
2019-02-05T15:41:42.127Z,36.23
2019-02-05T15:44:11.741Z,46.63
2019-02-05T15:46:41.267Z,36.63
2019-02-05T15:49:10.726Z,29.07
2019-02-05T15:51:40.126Z,31.13
2019-02-05T15:54:09.482Z,33.20
2019-02-05T15:56:39.093Z,34.77
2019-02-05T15:59:08.897Z,40.07
2019-02-05T16:01:38.307Z,39.70
2019-02-05T16:04:07.821Z,41.30
2019-02-05T16:06:37.618Z,36.00
2019-02-05T16:09:09.661Z,41.33
2019-02-05T16:11:39.262Z,42.75
2019-02-05T16:14:09.236Z,41.50
2019-02-05T16:16:38.828Z,34.88
2019-02-05T16:19:08.441Z,31.23
2019-02-05T16:21:38.091Z,35.88
2019-02-05T16:24:07.855Z,37.70
2019-02-05T16:26:37.331Z,36.45
2019-02-05T16:29:07.213Z,30.92
2019-02-05T16:31:36.969Z,38.10
2019-02-05T16:34:06.540Z,36.58
2019-02-05T16:36:36.220Z,30.60
2019-02-05T16:39:10.141Z,38.63
2019-02-05T16:41:39.715Z,35.58
2019-02-05T16:44:09.514Z,40.38
2019-02-05T16:46:39.216Z,45.45
2019-02-05T16:49:08.823Z,38.92
2019-02-05T16:51:38.294Z,37.75
2019-02-05T16:54:07.899Z,40.80
2019-02-05T16:56:37.759Z,34.70
2019-02-05T16:59:07.664Z,39.20
2019-02-05T17:01:37.352Z,41.63
2019-02-05T17:04:06.928Z,32.00
2019-02-05T17:06:36.551Z,36.48
2019-02-05T17:09:14.942Z,37.42
2019-02-05T17:11:44.442Z,38.92
2019-02-05T17:14:13.967Z,37.85
2019-02-05T17:16:43.690Z,42.50
2019-02-05T17:19:13.177Z,40.58
2019-02-05T17:21:42.683Z,41.08
2019-02-05T17:24:12.286Z,38.65
2019-02-05T17:26:42.030Z,48.23
2019-02-05T17:29:11.510Z,42.95
2019-02-05T17:31:40.970Z,42.95
2019-02-05T17:34:10.527Z,39.42
2019-02-05T17:36:40.294Z,39.20
2019-02-05T17:39:12.912Z,41.60
2019-02-05T17:41:42.503Z,36.48
2019-02-05T17:44:12.193Z,38.88
2019-02-05T17:46:41.685Z,36.60
2019-02-05T17:49:12.235Z,40.05
2019-02-05T17:51:41.983Z,38.75
2019-02-05T17:54:11.833Z,41.95
2019-02-05T17:56:41.420Z,33.15
2019-02-05T17:59:10.926Z,38.45
2019-02-05T18:01:40.651Z,40.35
2019-02-05T18:04:10.142Z,42.95
2019-02-05T18:06:39.671Z,36.95
2019-02-05T18:09:10.198Z,45.05
2019-02-05T18:11:40.339Z,35.83
2019-02-05T18:14:09.836Z,39.40
2019-02-05T18:16:39.745Z,40.38
2019-02-05T18:19:09.306Z,47.43
2019-02-05T18:21:38.964Z,34.95
2019-02-05T18:24:08.684Z,44.40
2019-02-05T18:26:38.284Z,41.70
2019-02-05T18:29:07.932Z,49.40
2019-02-05T18:31:37.477Z,42.73
2019-02-05T18:34:07.081Z,50.78
2019-02-05T18:36:36.676Z,39.00
2019-02-05T18:39:09.616Z,37.90
2019-02-05T18:41:39.348Z,41.68
2019-02-05T18:44:08.844Z,43.33
2019-02-05T18:46:38.471Z,47.17
2019-02-05T18:49:08.025Z,42.20
2019-02-05T18:51:38.332Z,36.88
2019-02-05T18:54:07.920Z,42.33
2019-02-05T18:56:37.396Z,41.80
2019-02-05T18:59:07.112Z,38.78
2019-02-05T19:01:36.832Z,47.70
2019-02-05T19:04:06.723Z,46.85
2019-02-05T19:06:36.508Z,45.10
2019-02-05T19:09:12.396Z,48.87
2019-02-05T19:11:42.054Z,38.25
2019-02-05T19:14:11.568Z,44.75
2019-02-05T19:16:41.098Z,45.65
2019-02-05T19:19:15.093Z,38.25
2019-02-05T19:21:41.803Z,42.00
2019-02-05T19:24:18.958Z,48.23
2019-02-05T19:26:51.460Z,40.73
2019-02-05T19:29:20.949Z,42.45
2019-02-05T19:31:50.797Z,58.92
2019-02-05T19:34:20.390Z,47.17
2019-02-05T19:36:51.461Z,46.00
2019-02-05T19:39:20.957Z,49.20
2019-02-05T19:41:50.426Z,44.93
2019-02-05T19:44:19.947Z,44.50
2019-02-05T19:47:01.958Z,43.28
2019-02-05T19:49:36.942Z,49.40
2019-02-05T19:52:07.059Z,46.40
2019-02-05T19:54:36.732Z,56.13
2019-02-05T19:57:06.230Z,42.00
2019-02-05T19:59:35.713Z,45.23
2019-02-05T20:02:05.904Z,52.93
2019-02-05T20:04:35.433Z,38.92
2019-02-05T20:07:05.182Z,40.50
2019-02-05T20:09:34.748Z,44.90
2019-02-05T20:12:04.249Z,46.75
2019-02-05T20:14:33.719Z,43.42
2019-02-05T20:17:03.709Z,49.55
2019-02-05T20:19:33.232Z,47.33
2019-02-05T20:22:02.711Z,44.08
2019-02-05T20:24:32.413Z,46.65
2019-02-05T20:27:01.881Z,45.92
2019-02-05T20:29:31.372Z,39.35
2019-02-05T20:32:00.854Z,52.10
2019-02-05T20:34:30.713Z,51.48
2019-02-05T20:37:00.177Z,46.73
2019-02-05T20:39:29.920Z,47.62
2019-02-05T20:41:59.486Z,49.25
2019-02-05T20:44:28.951Z,39.75
2019-02-05T20:47:00.692Z,46.42
2019-02-05T20:49:30.478Z,42.73
2019-02-05T20:51:59.984Z,47.73
2019-02-05T20:54:29.469Z,47.27
2019-02-05T20:56:59.144Z,43.78
2019-02-05T20:59:30.383Z,40.55
2019-02-05T21:02:00.026Z,58.42
2019-02-05T21:04:35.508Z,52.80
2019-02-05T21:07:04.712Z,47.40
2019-02-05T21:09:34.221Z,50.10
2019-02-05T21:12:03.695Z,42.13
2019-02-05T21:14:33.178Z,41.80
2019-02-05T21:17:02.642Z,45.30
2019-02-05T21:19:32.491Z,43.25
2019-02-05T21:22:02.088Z,52.15
2019-02-05T21:24:31.700Z,54.85
2019-02-05T21:27:01.317Z,55.75
2019-02-05T21:29:31.072Z,55.73
2019-02-05T21:32:00.601Z,50.33
2019-02-05T21:34:30.666Z,47.75
2019-02-05T21:37:00.247Z,48.52
2019-02-05T21:39:30.075Z,45.58
2019-02-05T21:42:00.283Z,55.48
2019-02-05T21:44:29.829Z,45.20
2019-02-05T21:46:59.325Z,45.23
2019-02-05T21:49:29.337Z,48.02
2019-02-05T21:51:58.882Z,54.83
2019-02-05T21:54:28.433Z,55.75
2019-02-05T21:56:57.887Z,49.08
2019-02-05T21:59:27.710Z,42.35
2019-02-05T22:01:57.345Z,41.68
2019-02-05T22:04:28.303Z,45.25
2019-02-05T22:06:58.132Z,46.08
2019-02-05T22:09:27.724Z,53.23
2019-02-05T22:11:57.319Z,48.23
2019-02-05T22:14:26.802Z,42.30
2019-02-05T22:16:56.302Z,50.90
2019-02-05T22:19:26.866Z,49.15
2019-02-05T22:21:56.461Z,55.63
2019-02-05T22:24:25.962Z,52.75
2019-02-05T22:26:55.680Z,47.65
2019-02-05T22:29:25.285Z,50.20
2019-02-05T22:31:54.771Z,58.60
2019-02-05T22:34:25.098Z,52.00
2019-02-05T22:36:54.718Z,42.78
2019-02-05T22:39:27.535Z,47.15
2019-02-05T22:41:57.222Z,61.18
2019-02-05T22:44:27.142Z,43.58
2019-02-05T22:46:57.046Z,40.12
2019-02-05T22:49:26.505Z,40.75
2019-02-05T22:51:56.439Z,44.55
2019-02-05T22:54:25.925Z,53.23
2019-02-05T22:56:55.443Z,47.85
2019-02-05T22:59:25.293Z,49.45
2019-02-05T23:02:00.044Z,52.90
2019-02-05T23:05:08.839Z,49.20
2019-02-05T23:07:38.348Z,56.60
2019-02-05T23:11:03.035Z,41.28
2019-02-05T23:13:26.924Z,56.53
2019-02-05T23:15:56.872Z,50.83
2019-02-05T23:18:26.489Z,46.95
2019-02-05T23:20:56.094Z,54.80
2019-02-05T23:23:25.721Z,51.15
2019-02-05T23:25:55.216Z,47.62
2019-02-05T23:28:24.708Z,40.65
2019-02-05T23:30:54.503Z,49.50
2019-02-05T23:33:24.276Z,48.25
2019-02-05T23:35:56.067Z,46.65
2019-02-05T23:38:29.357Z,50.58
2019-02-05T23:40:56.900Z,48.78
2019-02-05T23:43:27.762Z,51.40
2019-02-05T23:46:01.412Z,43.78
2019-02-05T23:48:28.606Z,41.55
2019-02-05T23:50:58.107Z,46.40
2019-02-05T23:53:27.728Z,43.85
2019-02-05T23:55:57.223Z,52.73
2019-02-05T23:58:28.548Z,48.87
